Time;durP1;ratioP1;P1;durP2;ratioP2;P2;SDS_P1;SDS_P2;PMS_P1;PMS_P2;Temp;Humidity;BMP_temperature;BMP_pressure;BME280_temperature;BME280_humidity;BME280_pressure;Samples;Min_cycle;Max_cycle;Signal;HPM_P1;HPM_P2
2020/12/08 00:00:28;;;;;;;6.80;5.07;;;;;;;5.80;73.95;100451.56;10070724;28;20108;-77
2020/12/08 00:05:24;;;;;;;6.75;4.82;;;;;;;5.73;73.07;100448.41;10047572;28;20055;-79
2020/12/08 00:10:20;;;;;;;7.00;4.88;;;;;;;5.80;73.30;100446.97;10061378;28;20110;-78
2020/12/08 00:15:17;;;;;;;7.15;5.40;;;;;;;5.87;73.34;100446.59;10059761;29;20070;-78
2020/12/08 00:20:17;;;;;;;7.38;5.22;;;;;;;5.76;73.10;100450.56;10055778;29;20043;-77
2020/12/08 00:25:14;;;;;;;8.43;5.03;;;;;;;5.83;73.17;100451.00;10072925;28;20051;-79
2020/12/08 00:30:12;;;;;;;6.97;5.15;;;;;;;5.84;72.62;100447.97;10058753;28;20520;-74
2020/12/08 00:35:10;;;;;;;6.72;4.70;;;;;;;5.86;73.78;100450.41;10067358;28;20118;-75
2020/12/08 00:40:06;;;;;;;6.40;4.35;;;;;;;5.78;73.33;100445.63;10074741;28;20047;-76
2020/12/08 00:45:02;;;;;;;6.97;5.15;;;;;;;5.78;74.21;100448.34;10076070;28;20047;-75
2020/12/08 00:49:58;;;;;;;7.45;5.35;;;;;;;5.88;73.64;100448.22;10055438;28;20400;-75
2020/12/08 00:54:55;;;;;;;7.45;5.15;;;;;;;5.87;73.02;100424.88;10045245;29;20055;-75
2020/12/08 00:59:51;;;;;;;7.72;5.00;;;;;;;5.80;73.21;100441.53;10075462;28;20055;-75
2020/12/08 01:04:47;;;;;;;6.95;4.93;;;;;;;5.82;74.12;100438.53;10058504;28;20057;-75
2020/12/08 01:09:44;;;;;;;7.32;5.22;;;;;;;5.82;74.01;100438.53;10056644;28;20055;-76
2020/12/08 01:14:40;;;;;;;7.03;5.35;;;;;;;5.73;73.67;100440.28;10051856;28;20437;-76
2020/12/08 01:19:36;;;;;;;7.47;4.93;;;;;;;5.72;73.60;100450.31;10057235;28;20051;-77
2020/12/08 01:24:32;;;;;;;7.25;5.28;;;;;;;5.76;73.19;100445.13;10053619;28;20084;-74
2020/12/08 01:29:28;;;;;;;6.88;4.75;;;;;;;5.79;73.28;100444.53;10060746;28;20061;-77
2020/12/08 01:34:24;;;;;;;7.40;5.10;;;;;;;5.79;73.68;100452.69;10070529;28;20052;-79
2020/12/08 01:39:20;;;;;;;9.20;5.20;;;;;;;5.78;73.38;100453.75;10057363;28;20447;-79
2020/12/08 01:44:17;;;;;;;7.72;5.43;;;;;;;5.74;73.79;100452.75;10053164;28;20138;-78
2020/12/08 01:49:13;;;;;;;7.38;5.47;;;;;;;5.78;72.71;100445.63;10051742;29;20070;-78
2020/12/08 01:54:10;;;;;;;7.30;5.28;;;;;;;5.78;73.84;100442.91;10056224;28;20138;-78
2020/12/08 01:59:06;;;;;;;8.05;5.18;;;;;;;5.78;73.04;100437.50;10066699;29;20070;-77
2020/12/08 02:04:02;;;;;;;7.38;5.60;;;;;;;5.80;73.07;100452.41;10060680;28;20051;-79
2020/12/08 02:08:58;;;;;;;8.43;5.68;;;;;;;5.78;73.53;100448.34;10063014;28;20043;-76
2020/12/08 02:13:54;;;;;;;7.07;5.47;;;;;;;5.70;72.53;100458.75;10069466;28;20058;-77
2020/12/08 02:18:54;;;;;;;9.07;5.47;;;;;;;5.73;72.76;100451.94;10063778;29;20054;-75
2020/12/08 02:23:50;;;;;;;9.80;5.43;;;;;;;5.72;72.76;100454.94;10064600;28;20059;-76
2020/12/08 02:28:47;;;;;;;7.88;5.75;;;;;;;5.77;73.30;100457.59;10062110;28;20057;-79
2020/12/08 02:33:43;;;;;;;7.55;5.65;;;;;;;5.78;73.15;100465.44;10054868;28;20492;-79
2020/12/08 02:38:39;;;;;;;7.45;5.38;;;;;;;5.76;73.02;100466.84;10053970;28;20122;-75
2020/12/08 02:43:35;;;;;;;7.22;5.68;;;;;;;5.76;73.95;100466.84;10076803;28;20065;-76
2020/12/08 02:48:32;;;;;;;7.45;4.82;;;;;;;5.70;73.06;100457.94;10060535;28;20066;-77
2020/12/08 02:53:28;;;;;;;7.38;5.65;;;;;;;5.70;73.39;100461.47;10063773;28;20231;-79
2020/12/08 02:58:24;;;;;;;8.13;5.80;;;;;;;5.72;72.75;100457.66;10076535;28;20424;-76
2020/12/08 03:03:20;;;;;;;8.57;5.65;;;;;;;5.61;73.68;100454.25;10073905;28;20075;-75
2020/12/08 03:08:16;;;;;;;8.23;5.05;;;;;;;5.58;72.84;100455.66;10061078;28;20048;-75
2020/12/08 03:13:13;;;;;;;7.88;5.25;;;;;;;5.65;73.40;100456.09;10074531;28;20065;-75
2020/12/08 03:18:09;;;;;;;7.95;5.38;;;;;;;5.67;73.06;100459.34;10078180;29;20048;-75
2020/12/08 03:23:05;;;;;;;8.52;5.30;;;;;;;5.64;73.83;100459.94;10058801;29;20047;-75
2020/12/08 03:28:01;;;;;;;7.63;5.30;;;;;;;5.67;73.49;100453.91;10065361;28;20138;-76
2020/12/08 03:32:57;;;;;;;7.47;5.93;;;;;;;5.67;73.37;100464.75;10057351;29;20051;-76
2020/12/08 03:37:54;;;;;;;8.13;5.78;;;;;;;5.67;73.88;100467.47;10061038;28;20480;-76
2020/12/08 03:42:51;;;;;;;7.05;5.47;;;;;;;5.64;73.82;100465.34;10048859;29;20158;-76
2020/12/08 03:47:47;;;;;;;7.75;5.63;;;;;;;5.60;73.70;100467.03;10059510;29;20047;-76
2020/12/08 03:52:43;;;;;;;7.25;5.30;;;;;;;5.61;74.08;100474.03;10054162;29;20130;-77
2020/12/08 03:57:39;;;;;;;9.00;5.80;;;;;;;5.56;74.07;100471.41;10067665;28;20047;-76
2020/12/08 04:02:35;;;;;;;8.18;5.93;;;;;;;5.58;73.63;100471.94;10075802;28;20051;-77
2020/12/08 04:07:31;;;;;;;9.18;5.32;;;;;;;5.52;73.86;100481.22;10062611;28;21517;-76
2020/12/08 04:12:28;;;;;;;7.65;5.75;;;;;;;5.53;74.61;100477.41;10059771;29;20055;-75
2020/12/08 04:17:24;;;;;;;8.20;5.85;;;;;;;5.57;74.12;100480.34;10056569;28;20063;-78
2020/12/08 04:22:20;;;;;;;8.43;6.10;;;;;;;5.60;74.05;100477.06;10060045;28;20515;-75
2020/12/08 04:27:16;;;;;;;8.23;5.88;;;;;;;5.53;74.01;100473.91;10052815;28;20046;-75
2020/12/08 04:32:13;;;;;;;8.98;6.35;;;;;;;5.49;73.81;100484.50;10059759;28;20055;-78
2020/12/08 04:37:13;;;;;;;9.25;6.97;;;;;;;5.37;74.07;100492.25;10064115;28;20074;-79
2020/12/08 04:42:12;;;;;;;9.93;7.28;;;;;;;5.51;73.72;100492.38;10060777;28;20567;-77
2020/12/08 04:47:20;;;;;;;12.60;7.70;;;;;;;5.53;73.45;100484.75;10062908;28;20047;-80
2020/12/08 04:52:16;;;;;;;10.45;7.60;;;;;;;5.40;74.00;100492.47;10055242;29;20131;-78
2020/12/08 04:57:12;;;;;;;10.27;7.45;;;;;;;5.35;74.21;100495.25;10055216;29;20469;-78
2020/12/08 05:02:08;;;;;;;11.68;8.05;;;;;;;5.44;74.41;100492.72;10072278;28;20061;-78
2020/12/08 05:07:06;;;;;;;10.57;8.18;;;;;;;5.41;73.95;100498.72;10046581;28;20059;-78
2020/12/08 05:12:05;;;;;;;11.43;8.32;;;;;;;5.43;74.01;100504.63;10052588;29;21221;-83
2020/12/08 05:17:10;;;;;;;13.90;9.13;;;;;;;5.50;73.77;100499.72;10074608;28;20146;-83
2020/12/08 05:22:09;;;;;;;13.05;9.57;;;;;;;5.46;73.90;100501.38;10059962;28;20126;-78
2020/12/08 05:27:07;;;;;;;12.77;9.27;;;;;;;5.50;73.50;100499.72;10068294;28;20051;-78
2020/12/08 05:32:41;;;;;;;12.50;9.55;;;;;;;5.34;74.25;100493.63;10049574;29;20208;-79
2020/12/08 05:37:44;;;;;;;13.33;9.47;;;;;;;5.41;73.94;100493.31;10048690;29;20047;-77
2020/12/08 05:42:52;;;;;;;13.02;9.80;;;;;;;5.41;74.04;100487.88;10057747;28;20055;-77
2020/12/08 05:47:56;;;;;;;12.50;9.70;;;;;;;5.44;74.10;100476.44;10058816;28;20057;-76
2020/12/08 05:53:02;;;;;;;12.60;9.23;;;;;;;5.53;74.09;100490.19;10062928;28;20051;-83
2020/12/08 05:58:07;;;;;;;13.50;9.95;;;;;;;5.51;74.11;100482.31;10051068;29;20468;-82
2020/12/08 06:03:12;;;;;;;13.93;10.05;;;;;;;5.35;74.00;100494.44;10043121;28;20075;-81
2020/12/08 06:08:22;;;;;;;14.60;9.88;;;;;;;5.49;73.97;100503.50;10065929;28;20048;-77
2020/12/08 06:13:30;;;;;;;15.57;10.38;;;;;;;5.45;73.90;100507.88;10060762;28;20047;-76
2020/12/08 06:18:46;;;;;;;15.02;9.50;;;;;;;5.49;73.82;100517.06;10062677;29;20062;-77
2020/12/08 06:23:50;;;;;;;15.13;10.90;;;;;;;5.48;73.57;100515.44;10064162;29;20150;-76
2020/12/08 06:28:46;;;;;;;12.02;9.40;;;;;;;5.31;74.18;100520.50;10059962;29;20408;-76
2020/12/08 06:33:58;;;;;;;14.35;10.00;;;;;;;5.48;74.16;100523.59;10076084;29;20114;-77
2020/12/08 06:39:38;;;;;;;14.57;9.75;;;;;;;5.54;73.50;100525.13;10072137;28;20045;-78
2020/12/08 06:44:41;;;;;;;11.82;9.07;;;;;;;5.48;73.80;100527.09;10084503;28;20051;-77
2020/12/08 06:49:47;;;;;;;;;;;;;;;5.37;73.98;100535.63;10370326;23;20567;-76
2020/12/08 07:01:12;;;;;;;14.33;9.67;;;;;;;5.33;73.85;100540.00;10109261;28;20463;-76
2020/12/08 07:12:15;;;;;;;;;;;;;;;5.28;73.95;100544.38;10260702;23;20051;-71
2020/12/08 07:17:11;;;;;;;13.27;9.90;;;;;;;5.10;73.61;100553.22;10098789;28;19926;-72
2020/12/08 07:22:08;;;;;;;13.75;9.80;;;;;;;5.19;74.39;100548.81;10113354;28;20046;-71
2020/12/08 07:27:04;;;;;;;15.02;10.45;;;;;;;5.22;73.84;100560.97;10077813;28;20106;-71
2020/12/08 07:32:01;;;;;;;16.95;11.35;;;;;;;5.03;74.00;100566.31;10090905;28;20054;-71
2020/12/08 07:36:59;;;;;;;14.43;10.52;;;;;;;5.09;73.93;100567.09;10090003;28;20059;-71
2020/12/08 07:42:02;;;;;;;14.13;9.77;;;;;;;5.15;73.93;100566.75;10093601;28;20067;-71
2020/12/08 07:46:59;;;;;;;13.60;9.57;;;;;;;5.13;73.33;100560.81;10072069;28;20090;-71
2020/12/08 07:51:55;;;;;;;15.15;9.52;;;;;;;5.14;73.66;100570.53;10094749;28;20058;-71
2020/12/08 07:56:55;;;;;;;17.60;10.65;;;;;;;5.15;73.84;100572.19;10086449;28;20097;-71
2020/12/08 08:01:51;;;;;;;13.73;9.90;;;;;;;5.21;73.40;100562.09;10205290;23;20226;-71
2020/12/08 08:07:23;;;;;;;16.50;10.52;;;;;;;5.35;73.16;100565.72;10050978;28;20051;-74
2020/12/08 08:18:01;;;;;;;14.65;9.68;;;;;;;5.50;73.11;100562.06;10141909;23;20392;-70
2020/12/08 08:28:09;;;;;;;13.13;9.25;;;;;;;5.57;72.92;100561.72;11127205;23;20059;-72
2020/12/08 08:33:06;;;;;;;14.23;10.75;;;;;;;5.53;72.90;100552.56;10136924;28;20201;-72
2020/12/08 08:38:02;;;;;;;13.07;9.57;;;;;;;5.69;72.55;100560.22;10118446;28;20042;-70
2020/12/08 08:42:59;;;;;;;13.45;9.43;;;;;;;5.66;71.80;100558.09;10132966;28;20053;-70
2020/12/08 08:47:55;;;;;;;15.30;10.32;;;;;;;5.62;71.88;100557.06;10123463;28;20050;-71
2020/12/08 09:21:05;;;;;;;15.63;11.23;;;;;;;5.65;70.84;100577.38;10136589;23;20094;-71
2020/12/08 09:26:02;;;;;;;13.43;11.00;;;;;;;5.78;71.15;100565.84;10119447;28;20047;-71
2020/12/08 09:30:58;;;;;;;15.68;10.15;;;;;;;5.73;70.95;100575.91;10156774;22;20081;-78
2020/12/08 09:35:56;;;;;;;15.23;11.18;;;;;;;5.89;71.39;100577.34;10153077;28;20065;-77
2020/12/08 09:40:52;;;;;;;15.98;12.70;;;;;;;5.77;71.20;100583.19;10149559;28;20133;-79
2020/12/08 09:45:55;;;;;;;14.63;11.50;;;;;;;5.91;71.48;100594.16;10154617;28;20057;-77
2020/12/08 09:50:52;;;;;;;16.80;12.32;;;;;;;5.95;71.51;100589.81;10148820;28;20042;-77
2020/12/08 09:55:49;;;;;;;18.98;12.27;;;;;;;5.85;72.32;100585.28;10154600;28;20088;-77
2020/12/08 10:00:45;;;;;;;19.08;13.48;;;;;;;5.85;73.36;100584.47;10157118;28;20054;-77
2020/12/08 10:05:41;;;;;;;18.92;12.57;;;;;;;5.94;73.28;100571.91;10160276;28;20056;-77
2020/12/08 10:10:38;;;;;;;16.42;12.70;;;;;;;6.01;72.78;100571.53;10151123;28;20050;-76
2020/12/08 10:15:35;;;;;;;18.17;13.45;;;;;;;6.03;74.00;100567.44;10163430;28;20186;-76
2020/12/08 10:20:31;;;;;;;18.48;13.18;;;;;;;6.08;73.62;100575.53;10156397;28;20058;-77
2020/12/08 10:25:27;;;;;;;19.55;14.27;;;;;;;6.03;73.01;100581.00;10154902;28;20059;-77
2020/12/08 10:30:23;;;;;;;20.40;14.00;;;;;;;6.14;73.50;100586.31;10167452;28;20747;-78
2020/12/08 10:35:21;;;;;;;21.13;14.90;;;;;;;6.21;74.12;100584.06;10160364;28;20707;-77
2020/12/08 10:40:17;;;;;;;19.25;13.77;;;;;;;6.19;73.58;100588.97;10168711;28;20062;-77
2020/12/08 10:45:21;;;;;;;21.90;14.63;;;;;;;6.24;73.22;100586.19;10154196;28;20054;-77
2020/12/08 10:50:22;;;;;;;21.55;15.88;;;;;;;6.05;73.08;100584.25;10154931;28;20054;-77
2020/12/08 10:55:29;;;;;;;20.85;16.23;;;;;;;6.14;73.54;100586.31;10164573;28;20050;-77
2020/12/08 11:00:30;;;;;;;19.70;15.40;;;;;;;6.29;72.90;100588.84;10155583;28;20046;-77
2020/12/08 11:05:27;;;;;;;20.92;15.25;;;;;;;6.34;71.84;100591.50;10156038;28;20058;-75
2020/12/08 11:10:23;;;;;;;19.17;15.35;;;;;;;6.38;72.09;100581.63;10147779;28;20061;-78
2020/12/08 11:15:22;;;;;;;20.50;15.63;;;;;;;6.37;72.72;100585.47;10154882;28;20059;-77
2020/12/08 11:20:19;;;;;;;20.88;16.08;;;;;;;6.42;71.83;100590.81;10175848;28;20498;-80
2020/12/08 11:25:15;;;;;;;20.60;15.15;;;;;;;6.39;71.71;100577.84;10160285;28;20045;-80
2020/12/08 11:30:11;;;;;;;19.85;16.55;;;;;;;6.52;72.24;100577.09;10152155;28;20057;-80
2020/12/08 11:35:07;;;;;;;21.25;16.25;;;;;;;6.54;71.47;100576.78;10157867;28;20091;-81
2020/12/08 11:40:03;;;;;;;21.40;16.58;;;;;;;6.63;71.20;100577.75;10157675;28;20060;-81
2020/12/08 11:45:03;;;;;;;22.58;16.25;;;;;;;6.70;70.79;100571.94;10160406;28;20050;-77
2020/12/08 11:50:02;;;;;;;22.08;16.80;;;;;;;6.72;71.21;100580.63;10161452;28;20054;-79
2020/12/08 11:55:03;;;;;;;20.13;16.67;;;;;;;6.80;70.75;100582.69;10168445;28;20057;-80
2020/12/08 12:00:06;;;;;;;21.40;16.73;;;;;;;6.89;70.52;100586.34;10156365;28;20053;-79
2020/12/08 12:05:07;;;;;;;24.73;18.10;;;;;;;6.92;70.30;100599.31;10156586;28;20047;-79
2020/12/08 12:10:08;;;;;;;;;;;;;;;6.91;70.23;100592.25;10143076;28;20061;-79
2020/12/08 12:15:08;;;;;;;23.13;17.80;;;;;;;6.92;70.22;100590.38;10158058;28;19929;-79
2020/12/08 12:20:07;;;;;;;25.05;17.90;;;;;;;6.93;69.73;100594.69;10159080;28;20050;-78
2020/12/08 12:25:04;;;;;;;22.63;17.85;;;;;;;6.99;70.05;100600.88;10165632;28;20136;-80
2020/12/08 12:30:00;;;;;;;23.80;17.48;;;;;;;6.94;69.87;100605.28;10145281;28;20110;-78
2020/12/08 12:35:00;;;;;;;25.27;18.17;;;;;;;6.73;70.77;100606.69;10149923;28;20073;-78
2020/12/08 12:40:22;;;;;;;24.70;18.80;;;;;;;6.97;70.79;100597.63;10147425;28;20058;-78
2020/12/08 12:45:18;;;;;;;24.88;17.42;;;;;;;6.90;70.96;100598.81;10152571;28;20178;-78
2020/12/08 12:50:14;;;;;;;25.45;18.60;;;;;;;6.95;70.99;100592.50;10150399;28;20691;-77
2020/12/08 12:55:10;;;;;;;26.30;18.50;;;;;;;7.08;71.59;100599.09;10152000;28;20444;-77
2020/12/08 13:00:06;;;;;;;29.80;20.02;;;;;;;7.12;71.61;100597.38;10148870;28;20042;-77
2020/12/08 13:05:03;;;;;;;28.98;18.50;;;;;;;7.27;71.35;100597.13;10160159;28;20072;-78
2020/12/08 13:09:59;;;;;;;28.48;18.58;;;;;;;7.23;71.69;100585.22;10160626;28;20050;-78
2020/12/08 13:14:59;;;;;;;33.33;20.75;;;;;;;7.26;71.78;100584.63;10151752;28;20050;-79
2020/12/08 13:19:56;;;;;;;29.83;20.90;;;;;;;7.11;71.99;100584.88;10164525;28;20065;-78
2020/12/08 13:25:12;;;;;;;32.15;21.75;;;;;;;6.98;72.37;100588.38;10159636;28;20046;-80
2020/12/08 13:30:08;;;;;;;41.40;25.42;;;;;;;6.80;72.49;100593.53;10153888;28;20077;-78
2020/12/08 13:35:04;;;;;;;39.05;23.77;;;;;;;6.80;72.73;100592.72;10152253;28;20326;-77
2020/12/08 13:40:04;;;;;;;37.53;21.98;;;;;;;6.83;73.55;100609.25;10161638;28;20050;-78
2020/12/08 13:45:00;;;;;;;38.63;24.92;;;;;;;6.90;73.49;100598.81;10161769;28;20048;-77
2020/12/08 13:49:58;;;;;;;44.10;26.50;;;;;;;6.78;73.60;100612.06;10159142;28;20049;-78
2020/12/08 13:54:55;;;;;;;46.97;26.85;;;;;;;6.76;73.80;100608.81;10176686;28;20125;-72
2020/12/08 13:59:51;;;;;;;56.65;30.42;;;;;;;6.69;74.45;100602.94;10163457;28;20047;-76
2020/12/08 14:04:48;;;;;;;64.05;30.95;;;;;;;6.82;73.73;100613.06;10159997;28;20141;-74
2020/12/08 14:09:45;;;;;;;58.70;29.42;;;;;;;6.74;74.10;100605.59;10169504;28;20046;-75
2020/12/08 14:14:41;;;;;;;60.20;31.70;;;;;;;6.74;74.57;100611.03;10158919;28;20057;-78
2020/12/08 14:19:37;;;;;;;60.60;30.52;;;;;;;6.64;75.26;100605.75;10156419;28;20495;-75
2020/12/08 14:24:38;;;;;;;67.20;33.42;;;;;;;6.73;74.67;100609.41;10160659;28;20347;-76
2020/12/08 14:29:35;;;;;;;65.35;33.33;;;;;;;6.63;75.10;100602.19;10167400;28;20076;-76
2020/12/08 14:34:32;;;;;;;69.78;33.30;;;;;;;6.47;75.62;100611.66;10154003;28;20081;-75
2020/12/08 14:39:29;;;;;;;64.18;34.63;;;;;;;6.44;75.79;100612.25;10151573;28;20115;-76
2020/12/08 14:44:25;;;;;;;65.30;34.75;;;;;;;6.61;75.49;100622.63;10158677;28;20108;-79
2020/12/08 14:49:21;;;;;;;61.28;32.42;;;;;;;6.59;75.70;100611.22;10159127;28;20038;-77
2020/12/08 14:54:19;;;;;;;63.88;34.40;;;;;;;6.34;76.20;100607.78;10156394;28;20049;-76
2020/12/08 14:59:15;;;;;;;60.47;32.50;;;;;;;6.30;76.59;100612.16;10152071;28;20046;-75
2020/12/08 15:04:17;;;;;;;66.32;34.15;;;;;;;6.23;76.84;100619.88;10177392;28;20052;-76
2020/12/08 15:09:15;;;;;;;57.17;33.38;;;;;;;6.38;76.17;100625.09;10161610;28;20060;-75
2020/12/08 15:14:12;;;;;;;55.85;32.40;;;;;;;6.34;76.46;100634.94;10159070;28;20150;-77
2020/12/08 15:19:08;;;;;;;54.60;30.02;;;;;;;6.34;75.66;100640.38;10147773;28;20498;-77
2020/12/08 15:24:06;;;;;;;52.58;29.00;;;;;;;6.36;74.89;100653.63;10157373;28;20058;-77
2020/12/08 15:29:06;;;;;;;50.80;30.60;;;;;;;6.18;75.46;100652.50;10147624;28;20042;-79
2020/12/08 15:34:03;;;;;;;52.50;30.63;;;;;;;6.34;75.07;100645.81;10149382;28;20062;-77
2020/12/08 15:39:00;;;;;;;55.03;32.63;;;;;;;6.31;75.32;100654.50;10150327;28;20046;-77
2020/12/08 15:43:57;;;;;;;56.28;34.30;;;;;;;6.21;74.95;100660.06;10146406;28;20116;-77
2020/12/08 15:49:04;;;;;;;57.95;31.90;;;;;;;6.22;75.73;100661.69;10145271;28;20058;-79
2020/12/08 15:54:00;;;;;;;57.92;34.17;;;;;;;6.32;75.31;100658.84;10155292;28;20133;-75
2020/12/08 15:58:56;;;;;;;55.10;32.75;;;;;;;6.28;75.25;100674.09;10159339;28;20117;-76
2020/12/08 16:03:52;;;;;;;55.85;34.38;;;;;;;6.20;75.92;100672.03;10148391;28;20074;-76
2020/12/08 16:08:55;;;;;;;58.50;34.13;;;;;;;6.35;74.97;100685.41;10159971;28;20142;-79
2020/12/08 16:13:52;;;;;;;58.28;34.17;;;;;;;6.29;75.11;100681.16;10145783;28;20061;-76
2020/12/08 16:18:48;;;;;;;57.05;34.05;;;;;;;6.39;74.99;100691.91;10139795;28;20085;-74
2020/12/08 16:23:47;;;;;;;58.33;33.88;;;;;;;6.12;75.28;100687.03;10143917;28;20060;-78
2020/12/08 16:28:44;;;;;;;51.95;33.10;;;;;;;6.28;74.96;100695.81;10148699;28;20503;-76
2020/12/08 16:33:40;;;;;;;60.60;35.42;;;;;;;6.23;75.40;100698.59;10144607;28;20073;-76
2020/12/08 16:38:37;;;;;;;60.17;34.63;;;;;;;6.05;75.79;100703.66;10150101;28;20046;-75
2020/12/08 16:43:33;;;;;;;65.43;37.15;;;;;;;6.00;76.02;100701.00;10149724;28;20077;-75
2020/12/08 16:48:29;;;;;;;63.13;36.30;;;;;;;6.08;75.71;100708.53;10151649;28;20050;-79
2020/12/08 16:53:25;;;;;;;61.15;34.53;;;;;;;6.11;75.42;100713.38;10141938;28;20058;-78
2020/12/08 16:58:22;;;;;;;56.05;32.90;;;;;;;6.20;75.75;100704.63;10148998;28;20543;-77
2020/12/08 17:03:18;;;;;;;62.53;35.05;;;;;;;6.19;75.32;100719.28;10153884;28;20050;-76
2020/12/08 17:08:15;;;;;;;55.85;31.67;;;;;;;6.29;75.41;100714.56;10154572;28;20065;-73
2020/12/08 17:13:11;;;;;;;57.88;34.80;;;;;;;6.26;75.50;100714.31;10144084;28;20049;-75
2020/12/08 17:18:08;;;;;;;51.90;32.22;;;;;;;6.36;75.16;100727.78;10153930;28;20042;-76
2020/12/08 17:23:09;;;;;;;58.55;33.80;;;;;;;6.28;75.04;100734.66;10158314;28;20135;-74
2020/12/08 17:28:05;;;;;;;53.03;31.05;;;;;;;6.38;74.84;100728.28;10152244;28;20402;-74
2020/12/08 17:33:01;;;;;;;53.60;33.35;;;;;;;6.38;74.68;100732.91;10168854;28;20056;-76
2020/12/08 17:37:58;;;;;;;59.35;35.28;;;;;;;6.37;74.37;100744.88;10160744;28;20060;-75
2020/12/08 17:42:56;;;;;;;55.05;33.90;;;;;;;6.47;74.47;100747.47;10152425;28;20050;-77
2020/12/08 17:47:52;;;;;;;56.25;33.80;;;;;;;6.47;74.40;100753.72;10145439;28;20055;-78
2020/12/08 17:52:51;;;;;;;53.28;32.25;;;;;;;6.45;74.35;100750.50;10142992;28;20101;-74
2020/12/08 17:57:48;;;;;;;58.92;33.28;;;;;;;6.51;74.49;100760.19;10156159;28;20101;-75
2020/12/08 18:02:45;;;;;;;51.30;32.63;;;;;;;6.52;74.59;100761.81;10142737;28;20054;-76
2020/12/08 18:07:42;;;;;;;57.10;33.65;;;;;;;6.52;74.02;100764.53;10152901;28;20495;-81
2020/12/08 18:12:42;;;;;;;54.45;34.10;;;;;;;6.60;73.72;100765.81;10147700;28;20049;-72
2020/12/08 18:17:53;;;;;;;53.45;33.30;;;;;;;6.60;73.92;100770.44;10133915;28;20074;-76
2020/12/08 18:22:49;;;;;;;63.70;38.03;;;;;;;6.26;74.43;100780.28;10146659;28;20061;-77
2020/12/08 18:27:47;;;;;;;50.88;32.90;;;;;;;6.50;74.07;100764.00;10145528;28;20054;-77
2020/12/08 18:32:44;;;;;;;52.03;32.13;;;;;;;6.58;73.58;100775.34;10148003;28;20051;-77
2020/12/08 18:37:47;;;;;;;51.80;33.58;;;;;;;6.55;73.54;100775.94;10159761;28;20056;-77
2020/12/08 18:42:48;;;;;;;55.63;34.47;;;;;;;6.49;73.93;100777.88;10142502;28;20054;-77
2020/12/08 18:47:44;;;;;;;52.60;31.77;;;;;;;6.41;74.58;100779.31;10160209;28;20045;-76
2020/12/08 18:52:45;;;;;;;51.83;32.22;;;;;;;6.46;74.33;100779.28;10143479;28;20585;-78
2020/12/08 18:57:46;;;;;;;50.17;31.02;;;;;;;6.51;73.94;100787.34;10153576;28;20046;-77
2020/12/08 19:02:44;;;;;;;48.65;30.63;;;;;;;6.49;73.71;100789.53;10151215;28;20414;-77
2020/12/08 19:07:45;;;;;;;51.40;32.65;;;;;;;6.38;74.38;100789.94;10196041;23;20046;-74
2020/12/08 19:12:45;;;;;;;54.55;32.65;;;;;;;6.30;74.99;100791.38;10124483;28;20054;-74
2020/12/08 19:17:42;;;;;;;53.70;31.50;;;;;;;6.27;74.23;100789.25;10135552;28;20495;-73
2020/12/08 19:22:41;;;;;;;50.05;31.88;;;;;;;6.30;74.42;100785.97;10133592;28;20050;-74
2020/12/08 19:27:37;;;;;;;49.00;31.73;;;;;;;6.40;74.07;100785.84;10111419;28;20518;-74
2020/12/08 19:32:34;;;;;;;52.40;33.22;;;;;;;6.17;75.01;100786.63;10127898;28;20058;-74
2020/12/08 19:37:32;;;;;;;53.50;34.35;;;;;;;6.10;74.46;100787.78;10120050;28;20121;-74
2020/12/08 19:42:28;;;;;;;51.83;32.38;;;;;;;6.22;74.67;100794.72;10116001;28;20446;-74
2020/12/08 19:47:24;;;;;;;52.88;35.60;;;;;;;6.10;74.27;100787.78;10126357;28;20145;-73
2020/12/08 19:52:20;;;;;;;54.55;32.88;;;;;;;6.06;74.98;100786.75;10122059;28;20470;-74
2020/12/08 19:57:19;;;;;;;54.80;32.40;;;;;;;6.16;74.56;100798.59;10136129;28;20430;-74
2020/12/08 20:02:15;;;;;;;48.65;30.55;;;;;;;6.09;74.48;100801.63;10128470;28;20667;-73
2020/12/08 20:07:13;;;;;;;48.92;31.77;;;;;;;6.13;74.32;100810.00;10124447;28;20396;-74
2020/12/08 20:12:12;;;;;;;53.08;31.98;;;;;;;5.87;74.04;100804.75;10114656;28;20054;-75
2020/12/08 20:17:09;;;;;;;54.00;32.47;;;;;;;5.89;74.27;100808.00;10127800;28;20050;-75
2020/12/08 20:22:05;;;;;;;52.42;32.03;;;;;;;5.95;73.73;100809.63;10133577;28;20478;-75
2020/12/08 20:27:01;;;;;;;49.65;29.48;;;;;;;5.93;73.57;100808.25;10106661;28;21114;-74
2020/12/08 20:31:57;;;;;;;45.42;28.60;;;;;;;5.99;72.82;100802.53;10113582;28;20504;-75
2020/12/08 20:36:53;;;;;;;46.63;29.23;;;;;;;5.87;72.83;100810.19;10117019;28;20054;-75
2020/12/08 20:41:51;;;;;;;48.78;29.90;;;;;;;5.90;72.68;100820.50;10108945;28;20446;-74
2020/12/08 20:46:47;;;;;;;51.75;31.38;;;;;;;5.87;72.12;100827.31;10113553;28;20053;-75
2020/12/08 20:51:45;;;;;;;46.40;30.02;;;;;;;5.63;73.45;100827.19;10117551;28;20058;-75
2020/12/08 20:56:49;;;;;;;47.60;27.63;;;;;;;5.63;73.45;100827.19;10103634;28;20054;-75
2020/12/08 21:01:52;;;;;;;54.65;33.85;;;;;;;5.58;74.03;100840.00;10111680;28;20049;-75
2020/12/08 21:06:49;;;;;;;53.90;32.78;;;;;;;5.58;74.44;100835.38;10114972;28;20100;-75
2020/12/08 21:11:45;;;;;;;51.58;32.92;;;;;;;5.39;74.93;100837.13;10113474;28;20047;-75
2020/12/08 21:16:42;;;;;;;49.75;31.35;;;;;;;5.54;74.81;100845.16;10121776;28;20062;-75
2020/12/08 21:21:38;;;;;;;58.78;32.10;;;;;;;5.51;74.30;100851.16;10116982;28;20141;-72
2020/12/08 21:26:35;;;;;;;60.90;37.38;;;;;;;5.31;74.72;100843.13;10130426;28;20058;-75
2020/12/08 21:31:32;;;;;;;65.80;37.60;;;;;;;5.37;73.91;100850.16;10101854;28;20537;-74
2020/12/08 21:36:29;;;;;;;61.90;36.45;;;;;;;5.41;74.03;100851.22;10118407;28;20124;-75
2020/12/08 21:41:25;;;;;;;63.90;38.83;;;;;;;5.05;74.82;100854.09;10123837;28;20062;-74
2020/12/08 21:46:22;;;;;;;60.85;37.63;;;;;;;5.07;75.59;100862.75;10124064;28;20430;-74
2020/12/08 21:51:18;;;;;;;67.10;39.50;;;;;;;5.23;74.53;100839.91;10120244;28;20125;-75
2020/12/08 21:56:14;;;;;;;67.18;39.58;;;;;;;5.07;73.99;100857.34;10113741;28;20419;-74
2020/12/08 22:01:11;;;;;;;74.28;42.42;;;;;;;4.75;75.49;100863.94;10121544;28;20573;-77
2020/12/08 22:06:09;;;;;;;60.42;34.70;;;;;;;4.98;74.69;100870.66;10108532;28;20097;-68
2020/12/08 22:11:13;;;;;;;71.40;38.83;;;;;;;4.81;75.07;100875.59;10108833;28;20518;-68
2020/12/08 22:16:11;;;;;;;;;;;;;;;5.13;74.54;100877.91;10142363;28;20343;-69
2020/12/08 22:21:07;;;;;;;63.20;38.47;;;;;;;5.12;75.21;100878.19;10133676;28;20412;-69
2020/12/08 22:26:03;;;;;;;63.53;39.67;;;;;;;5.13;74.58;100883.34;10119037;28;20051;-71
2020/12/08 22:30:59;;;;;;;63.92;39.05;;;;;;;5.15;74.33;100875.75;10134797;28;20106;-71
2020/12/08 22:35:55;;;;;;;63.17;36.47;;;;;;;5.15;74.49;100886.59;10133194;28;20178;-71
2020/12/08 22:40:51;;;;;;;67.18;38.00;;;;;;;5.19;74.75;100887.63;10137748;28;20130;-71
2020/12/08 22:45:48;;;;;;;68.28;40.40;;;;;;;5.17;74.38;100884.38;10142803;28;20078;-71
2020/12/08 22:50:44;;;;;;;64.75;38.40;;;;;;;5.10;74.70;100878.47;10143317;28;20570;-72
2020/12/08 22:55:40;;;;;;;68.68;38.60;;;;;;;5.16;74.62;100877.34;10141140;28;20054;-69
2020/12/08 23:00:36;;;;;;;69.53;42.03;;;;;;;5.00;75.04;100867.66;10139451;28;20054;-70
2020/12/08 23:05:33;;;;;;;68.45;41.47;;;;;;;4.65;76.26;100877.50;10137133;28;20054;-71
2020/12/08 23:10:29;;;;;;;69.03;37.58;;;;;;;4.90;74.51;100875.81;10129427;28;20161;-69
2020/12/08 23:15:25;;;;;;;68.45;38.13;;;;;;;4.95;74.42;100878.53;10131259;28;20108;-70
2020/12/08 23:20:21;;;;;;;72.18;39.65;;;;;;;4.88;74.76;100883.44;10135293;28;20077;-72
2020/12/08 23:25:17;;;;;;;72.82;40.95;;;;;;;4.84;75.38;100870.41;10132430;28;20093;-71
2020/12/08 23:30:13;;;;;;;71.63;41.60;;;;;;;4.86;75.05;100889.13;10133145;28;20117;-68
2020/12/08 23:35:09;;;;;;;77.68;41.40;;;;;;;4.76;74.41;100906.22;10129941;28;20065;-71